Time;durP1;ratioP1;P1;durP2;ratioP2;P2;SDS_P1;SDS_P2;PMS_P1;PMS_P2;Temp;Humidity;BMP_temperature;BMP_pressure;BME280_temperature;BME280_humidity;BME280_pressure;Samples;Min_cycle;Max_cycle;Signal;HPM_P1;HPM_P2
2021/01/10 00:00:43;;;;;;;29.43;22.37;;;;;;;;;;5116678;22;20718;-86
2021/01/10 00:03:15;;;;;;;29.63;19.83;;;;;;;;;;5034230;28;20214;-86
2021/01/10 00:05:48;;;;;;;23.23;19.63;;;;;;;;;;5032453;28;20180;-86
2021/01/10 00:08:18;;;;;;;27.97;21.50;;;;;;;;;;5032803;28;20267;-86
2021/01/10 00:10:49;;;;;;;25.97;19.70;;;;;;;;;;5032453;28;20199;-86
2021/01/10 00:13:24;;;;;;;26.97;20.67;;;;;;;;;;5033607;28;20180;-85
2021/01/10 00:15:52;;;;;;;26.70;20.07;;;;;;;;;;5036907;28;20203;-86
2021/01/10 00:18:24;;;;;;;24.43;20.90;;;;;;;;;;5034359;28;20179;-86
2021/01/10 00:20:54;;;;;;;28.47;21.67;;;;;;;;;;5033016;28;20278;-86
2021/01/10 00:23:26;;;;;;;24.60;19.67;;;;;;;;;;5032598;28;20173;-86
2021/01/10 00:25:58;;;;;;;29.13;21.73;;;;;;;;;;5033841;28;20184;-86
2021/01/10 00:28:31;;;;;;;29.50;21.57;;;;;;;;;;5033703;28;20174;-86
2021/01/10 00:31:00;;;;;;;26.63;20.43;;;;;;;;;;5033197;28;20193;-86
2021/01/10 00:33:30;;;;;;;28.17;21.80;;;;;;;;;;5033971;28;20173;-86
2021/01/10 00:36:01;;;;;;;26.70;20.17;;;;;;;;;;5033641;28;20207;-86
2021/01/10 00:38:31;;;;;;;26.03;16.43;;;;;;;;;;5032294;28;20181;-86
2021/01/10 00:41:03;;;;;;;24.10;16.23;;;;;;;;;;5034496;28;20198;-86
2021/01/10 00:43:36;;;;;;;26.03;16.77;;;;;;;;;;5037184;28;20185;-86
2021/01/10 00:46:11;;;;;;;28.50;17.93;;;;;;;;;;5038918;28;20168;-86
2021/01/10 00:48:43;;;;;;;25.67;17.67;;;;;;;;;;5037111;28;20174;-86
2021/01/10 00:51:18;;;;;;;27.73;18.00;;;;;;;;;;5036266;28;20318;-86
2021/01/10 00:53:50;;;;;;;23.50;14.93;;;;;;;;;;5036662;28;20246;-86
2021/01/10 00:56:21;;;;;;;25.10;17.30;;;;;;;;;;5036607;28;20291;-86
2021/01/10 00:58:52;;;;;;;28.60;18.23;;;;;;;;;;5036641;28;20179;-86
2021/01/10 01:01:25;;;;;;;25.17;17.13;;;;;;;;;;5037125;28;20748;-86
2021/01/10 01:03:53;;;;;;;28.00;16.77;;;;;;;;;;5038290;28;20172;-86
2021/01/10 01:06:30;;;;;;;26.13;17.73;;;;;;;;;;5037550;28;20188;-86
2021/01/10 01:09:05;;;;;;;29.60;18.83;;;;;;;;;;5036927;28;20263;-86
2021/01/10 01:11:37;;;;;;;27.57;16.83;;;;;;;;;;5037198;28;20166;-86
2021/01/10 01:14:09;;;;;;;30.57;19.00;;;;;;;;;;5035380;28;20180;-86
2021/01/10 01:16:45;;;;;;;31.07;19.10;;;;;;;;;;5035402;28;20205;-86
2021/01/10 01:19:15;;;;;;;32.63;20.17;;;;;;;;;;5037009;28;20180;-84
2021/01/10 01:21:45;;;;;;;32.83;19.73;;;;;;;;;;5035626;28;20181;-85
2021/01/10 01:24:16;;;;;;;40.20;21.53;;;;;;;;;;5035478;28;20175;-85
2021/01/10 01:26:44;;;;;;;32.43;21.20;;;;;;;;;;5036770;28;20180;-85
2021/01/10 01:29:18;;;;;;;34.13;21.30;;;;;;;;;;5041437;28;20297;-85
2021/01/10 01:31:50;;;;;;;31.20;19.53;;;;;;;;;;5039843;28;20200;-85
2021/01/10 01:34:21;;;;;;;37.03;21.13;;;;;;;;;;5039169;28;20191;-85
2021/01/10 01:36:51;;;;;;;30.93;19.87;;;;;;;;;;5040104;28;20188;-85
2021/01/10 01:39:21;;;;;;;34.13;21.63;;;;;;;;;;5040161;28;20228;-85
2021/01/10 01:41:51;;;;;;;36.90;21.43;;;;;;;;;;5038586;28;20262;-85
2021/01/10 01:44:21;;;;;;;38.90;22.13;;;;;;;;;;5038757;28;20271;-85
2021/01/10 01:46:51;;;;;;;37.83;23.37;;;;;;;;;;5038719;28;20346;-85
2021/01/10 01:49:23;;;;;;;39.00;22.93;;;;;;;;;;5037819;28;20792;-85
2021/01/10 01:51:52;;;;;;;41.03;22.77;;;;;;;;;;5037110;28;20216;-86
2021/01/10 01:54:25;;;;;;;39.73;23.60;;;;;;;;;;5039535;28;20266;-86
2021/01/10 01:56:51;;;;;;;37.53;23.23;;;;;;;;;;5038978;28;20214;-85
2021/01/10 01:59:25;;;;;;;41.30;23.50;;;;;;;;;;5039335;28;20286;-85
2021/01/10 02:01:55;;;;;;;48.23;26.53;;;;;;;;;;5037925;28;20271;-85
2021/01/10 02:04:41;;;;;;;42.40;23.63;;;;;;;;;;5039864;28;20182;-85
2021/01/10 02:07:18;;;;;;;39.23;24.10;;;;;;;;;;5038180;28;20235;-85
2021/01/10 02:09:50;;;;;;;40.30;24.53;;;;;;;;;;5039018;28;20567;-86
2021/01/10 02:12:21;;;;;;;43.60;24.63;;;;;;;;;;5039189;28;20172;-86
2021/01/10 02:14:55;;;;;;;40.97;24.80;;;;;;;;;;5038414;28;20231;-86
2021/01/10 02:17:29;;;;;;;43.33;24.23;;;;;;;;;;5039712;28;20165;-86
2021/01/10 02:20:02;;;;;;;37.07;22.70;;;;;;;;;;5039971;28;20260;-86
2021/01/10 02:22:32;;;;;;;41.80;23.57;;;;;;;;;;5038067;28;20184;-86
2021/01/10 02:25:07;;;;;;;36.97;23.10;;;;;;;;;;5039180;28;20260;-86
2021/01/10 02:27:40;;;;;;;39.00;23.17;;;;;;;;;;5039360;28;20180;-86
2021/01/10 02:30:14;;;;;;;35.37;23.07;;;;;;;;;;5038895;28;20200;-86
2021/01/10 02:32:47;;;;;;;34.33;22.97;;;;;;;;;;5038752;28;20614;-86
2021/01/10 02:35:20;;;;;;;36.00;23.03;;;;;;;;;;5039592;28;20223;-86
2021/01/10 02:37:55;;;;;;;35.80;23.30;;;;;;;;;;5038705;28;20181;-86
2021/01/10 02:40:30;;;;;;;34.20;22.07;;;;;;;;;;5037989;28;20664;-86
2021/01/10 02:43:08;;;;;;;35.77;23.17;;;;;;;;;;5039607;28;20180;-86
2021/01/10 02:45:45;;;;;;;36.40;23.10;;;;;;;;;;5037866;28;20633;-86
2021/01/10 02:48:16;;;;;;;35.40;21.80;;;;;;;;;;5038568;28;20211;-86
2021/01/10 02:50:43;;;;;;;34.53;21.57;;;;;;;;;;5038725;28;20208;-86
2021/01/10 02:53:15;;;;;;;36.60;22.73;;;;;;;;;;5037570;28;20188;-85
2021/01/10 02:55:49;;;;;;;35.60;23.80;;;;;;;;;;5037785;28;20217;-85
2021/01/10 02:58:21;;;;;;;35.80;22.90;;;;;;;;;;5038809;28;20176;-86
2021/01/10 03:00:55;;;;;;;34.10;22.23;;;;;;;;;;5038355;28;20580;-85
2021/01/10 03:03:25;;;;;;;33.83;22.13;;;;;;;;;;5038325;28;20181;-85
2021/01/10 03:05:54;;;;;;;32.90;21.73;;;;;;;;;;5038221;28;20176;-85
2021/01/10 03:08:23;;;;;;;33.60;20.70;;;;;;;;;;5038247;28;20210;-85
2021/01/10 03:10:55;;;;;;;32.67;19.97;;;;;;;;;;5038057;28;20207;-85
2021/01/10 03:13:25;;;;;;;33.40;20.90;;;;;;;;;;5038385;28;20180;-85
2021/01/10 03:15:55;;;;;;;28.63;17.10;;;;;;;;;;5039983;28;20205;-85
2021/01/10 03:18:26;;;;;;;22.10;12.87;;;;;;;;;;5039743;28;20233;-85
2021/01/10 03:20:58;;;;;;;22.67;13.67;;;;;;;;;;5040420;28;20201;-85
2021/01/10 03:23:29;;;;;;;26.93;16.63;;;;;;;;;;5039950;28;20172;-85
2021/01/10 03:26:01;;;;;;;22.33;13.70;;;;;;;;;;5039027;28;20184;-85
2021/01/10 03:28:32;;;;;;;23.70;14.70;;;;;;;;;;5039519;28;20184;-85
2021/01/10 03:31:03;;;;;;;24.03;14.17;;;;;;;;;;5039145;28;20208;-85
2021/01/10 03:33:35;;;;;;;16.30;11.67;;;;;;;;;;5040889;28;20178;-85
2021/01/10 03:36:07;;;;;;;34.13;17.67;;;;;;;;;;5038633;28;20202;-85
2021/01/10 03:38:44;;;;;;;28.60;16.70;;;;;;;;;;5039411;28;20215;-85
2021/01/10 03:41:20;;;;;;;37.77;19.77;;;;;;;;;;5038977;28;20256;-85
2021/01/10 03:43:49;;;;;;;29.97;17.17;;;;;;;;;;5038391;28;20212;-85
2021/01/10 03:46:20;;;;;;;40.13;19.37;;;;;;;;;;5038334;28;20266;-85
2021/01/10 03:48:50;;;;;;;39.73;20.93;;;;;;;;;;5037979;28;20180;-85
2021/01/10 03:51:21;;;;;;;40.20;20.87;;;;;;;;;;5040036;28;20199;-85
2021/01/10 03:53:54;;;;;;;31.73;16.80;;;;;;;;;;5037711;28;20184;-85
2021/01/10 03:56:26;;;;;;;27.20;14.90;;;;;;;;;;5038373;28;20263;-85
2021/01/10 03:58:57;;;;;;;35.10;17.30;;;;;;;;;;5038557;28;20175;-85
2021/01/10 04:01:30;;;;;;;46.63;21.53;;;;;;;;;;5037616;28;20197;-85
2021/01/10 04:04:01;;;;;;;36.90;21.13;;;;;;;;;;5038675;28;20274;-85
2021/01/10 04:06:35;;;;;;;40.13;21.90;;;;;;;;;;5038428;28;20179;-85
2021/01/10 04:09:07;;;;;;;39.50;21.37;;;;;;;;;;5038063;28;20319;-85
2021/01/10 04:11:36;;;;;;;36.13;19.30;;;;;;;;;;5038430;28;20590;-85
2021/01/10 04:14:06;;;;;;;40.03;21.37;;;;;;;;;;5038943;28;20672;-85
2021/01/10 04:16:36;;;;;;;37.80;20.43;;;;;;;;;;5037487;28;20262;-85
2021/01/10 04:19:05;;;;;;;44.30;21.93;;;;;;;;;;5039009;28;20200;-85
2021/01/10 04:21:35;;;;;;;42.37;21.20;;;;;;;;;;5040646;28;20204;-86
2021/01/10 04:24:06;;;;;;;37.40;21.27;;;;;;;;;;5039542;28;20189;-85
2021/01/10 04:26:47;;;;;;;41.53;21.30;;;;;;;;;;5039911;28;20640;-85
2021/01/10 04:29:14;;;;;;;37.20;19.80;;;;;;;;;;5039977;28;20203;-86
2021/01/10 04:31:45;;;;;;;35.93;21.20;;;;;;;;;;5039748;28;20180;-86
2021/01/10 04:34:15;;;;;;;37.97;20.17;;;;;;;;;;5039450;28;20183;-85
2021/01/10 04:36:47;;;;;;;38.40;20.50;;;;;;;;;;5039650;28;20706;-85
2021/01/10 04:39:19;;;;;;;42.70;20.90;;;;;;;;;;5038793;28;20179;-86
2021/01/10 04:41:51;;;;;;;39.20;20.73;;;;;;;;;;5040416;28;20176;-86
2021/01/10 04:44:23;;;;;;;39.90;20.67;;;;;;;;;;5039010;28;20649;-86
2021/01/10 04:46:55;;;;;;;37.60;20.07;;;;;;;;;;5040795;28;20177;-86
2021/01/10 04:49:26;;;;;;;44.03;20.67;;;;;;;;;;5041274;28;20189;-86
2021/01/10 04:51:57;;;;;;;35.00;18.97;;;;;;;;;;5039298;28;20216;-86
2021/01/10 04:54:30;;;;;;;35.83;18.67;;;;;;;;;;5039020;28;20271;-85
2021/01/10 04:57:02;;;;;;;39.30;21.23;;;;;;;;;;5038909;28;20188;-85
2021/01/10 04:59:31;;;;;;;40.23;19.80;;;;;;;;;;5039137;28;20217;-86
2021/01/10 05:02:03;;;;;;;38.90;20.50;;;;;;;;;;5039673;28;20161;-86
2021/01/10 05:04:33;;;;;;;35.67;19.63;;;;;;;;;;5038337;28;20671;-86
2021/01/10 05:07:05;;;;;;;38.17;19.90;;;;;;;;;;5039411;28;20180;-86
2021/01/10 05:09:41;;;;;;;37.30;19.83;;;;;;;;;;5040327;28;20268;-86
2021/01/10 05:12:12;;;;;;;30.73;18.60;;;;;;;;;;5040317;28;20157;-86
2021/01/10 05:14:44;;;;;;;32.87;18.40;;;;;;;;;;5039253;28;20256;-86
2021/01/10 05:17:27;;;;;;;35.93;17.80;;;;;;;;;;5040772;28;20168;-86
2021/01/10 05:19:57;;;;;;;35.03;19.50;;;;;;;;;;5039831;28;20202;-86
2021/01/10 05:22:29;;;;;;;34.50;18.57;;;;;;;;;;5038919;28;20178;-86
2021/01/10 05:25:14;;;;;;;31.33;18.40;;;;;;;;;;5038985;28;20186;-85
2021/01/10 05:27:50;;;;;;;33.90;20.17;;;;;;;;;;5040813;28;20596;-86
2021/01/10 05:30:30;;;;;;;34.83;17.97;;;;;;;;;;5043740;28;20222;-86
2021/01/10 05:33:07;;;;;;;33.43;18.90;;;;;;;;;;5041971;28;20185;-86
2021/01/10 05:35:54;;;;;;;31.13;18.67;;;;;;;;;;5042300;28;20211;-86
2021/01/10 05:38:35;;;;;;;34.77;18.93;;;;;;;;;;5042682;28;20160;-86
2021/01/10 05:41:12;;;;;;;33.77;19.27;;;;;;;;;;5041202;28;20201;-86
2021/01/10 05:43:59;;;;;;;38.27;19.47;;;;;;;;;;5043193;28;20552;-86
2021/01/10 05:46:31;;;;;;;36.00;19.53;;;;;;;;;;5043723;28;20263;-86
2021/01/10 05:49:04;;;;;;;37.23;19.17;;;;;;;;;;5042713;28;20189;-86
2021/01/10 05:51:41;;;;;;;34.73;18.80;;;;;;;;;;5042343;28;20191;-86
2021/01/10 05:54:15;;;;;;;38.37;19.33;;;;;;;;;;5043407;28;20161;-86
2021/01/10 05:56:44;;;;;;;39.97;20.13;;;;;;;;;;5042462;28;20676;-86
2021/01/10 05:59:14;;;;;;;33.23;19.63;;;;;;;;;;5042184;28;20252;-86
2021/01/10 06:01:56;;;;;;;35.50;18.70;;;;;;;;;;5137179;22;20245;-87
2021/01/10 06:04:27;;;;;;;35.67;20.33;;;;;;;;;;5035983;28;20173;-87
2021/01/10 06:06:59;;;;;;;37.23;18.27;;;;;;;;;;5018217;28;20724;-87
2021/01/10 06:09:31;;;;;;;37.73;20.83;;;;;;;;;;5018218;28;20197;-86
2021/01/10 06:12:00;;;;;;;34.03;19.00;;;;;;;;;;5036185;28;20189;-87
2021/01/10 06:14:35;;;;;;;38.57;20.40;;;;;;;;;;5018259;28;20180;-87
2021/01/10 06:17:11;;;;;;;34.67;18.27;;;;;;;;;;5017844;28;20207;-86
2021/01/10 06:19:45;;;;;;;43.60;20.97;;;;;;;;;;5036377;28;20160;-86
2021/01/10 06:22:21;;;;;;;44.17;20.43;;;;;;;;;;5035719;28;20204;-87
2021/01/10 06:24:56;;;;;;;39.27;20.23;;;;;;;;;;5035636;28;20259;-87
2021/01/10 06:27:28;;;;;;;38.93;19.93;;;;;;;;;;5036198;28;20161;-87
2021/01/10 06:30:02;;;;;;;36.77;19.57;;;;;;;;;;5017655;28;20231;-87
2021/01/10 06:32:32;;;;;;;37.20;19.17;;;;;;;;;;5035962;28;20271;-87
2021/01/10 06:35:01;;;;;;;38.43;18.27;;;;;;;;;;5035609;28;20250;-87
2021/01/10 06:37:31;;;;;;;44.67;20.00;;;;;;;;;;5017482;28;20683;-86
2021/01/10 06:40:07;;;;;;;42.00;20.43;;;;;;;;;;5035563;28;20219;-87
2021/01/10 06:42:45;;;;;;;37.83;18.50;;;;;;;;;;5017798;28;20531;-87
2021/01/10 06:45:16;;;;;;;48.07;20.63;;;;;;;;;;5035838;28;20192;-87
2021/01/10 06:47:56;;;;;;;42.83;19.57;;;;;;;;;;5017451;28;20181;-87
2021/01/10 06:50:22;;;;;;;41.30;18.87;;;;;;;;;;5017412;28;20197;-86
2021/01/10 06:52:51;;;;;;;47.23;19.33;;;;;;;;;;5017957;28;20222;-87
2021/01/10 06:55:21;;;;;;;41.47;20.37;;;;;;;;;;5017394;28;20581;-87
2021/01/10 06:57:51;;;;;;;42.27;19.27;;;;;;;;;;5034772;28;20176;-87
2021/01/10 07:00:18;;;;;;;43.23;20.77;;;;;;;;;;5016984;28;20208;-87
2021/01/10 07:03:03;;;;;;;41.57;20.33;;;;;;;;;;5034978;28;20177;-87
2021/01/10 07:05:50;;;;;;;46.10;19.70;;;;;;;;;;5017061;28;20188;-86
2021/01/10 07:08:37;;;;;;;42.50;18.97;;;;;;;;;;5034683;28;20184;-87
2021/01/10 07:11:24;;;;;;;46.33;20.43;;;;;;;;;;5035037;28;20232;-87
2021/01/10 07:14:02;;;;;;;39.07;19.10;;;;;;;;;;5034548;28;20263;-87
2021/01/10 07:16:33;;;;;;;45.33;19.70;;;;;;;;;;5034771;28;20264;-86
2021/01/10 07:19:11;;;;;;;40.27;19.43;;;;;;;;;;5016852;28;20199;-86
2021/01/10 07:21:46;;;;;;;42.20;20.67;;;;;;;;;;5016810;28;20196;-86
2021/01/10 07:24:21;;;;;;;43.03;20.47;;;;;;;;;;5034857;28;20164;-86
2021/01/10 07:26:52;;;;;;;46.93;21.53;;;;;;;;;;5016483;28;20191;-86
2021/01/10 07:29:33;;;;;;;45.47;20.80;;;;;;;;;;5034377;28;20179;-87
2021/01/10 07:31:59;;;;;;;40.97;18.70;;;;;;;;;;5016730;28;20280;-86
2021/01/10 07:34:30;;;;;;;45.70;20.07;;;;;;;;;;5034383;28;20256;-86
2021/01/10 07:37:01;;;;;;;47.63;22.27;;;;;;;;;;5016745;28;20187;-87
2021/01/10 07:39:33;;;;;;;44.17;20.63;;;;;;;;;;5016359;28;20218;-87
2021/01/10 07:42:14;;;;;;;40.73;20.23;;;;;;;;;;5016613;28;20201;-86
2021/01/10 07:44:55;;;;;;;47.50;21.17;;;;;;;;;;5016629;28;20180;-87
2021/01/10 07:47:35;;;;;;;43.33;21.47;;;;;;;;;;5034220;28;20188;-87
2021/01/10 07:50:07;;;;;;;39.87;19.70;;;;;;;;;;5015284;28;20177;-87
2021/01/10 07:52:44;;;;;;;41.73;21.57;;;;;;;;;;5034010;28;20198;-86
2021/01/10 07:55:21;;;;;;;41.77;19.60;;;;;;;;;;5033732;28;20295;-87
2021/01/10 07:58:09;;;;;;;42.27;20.10;;;;;;;;;;5016247;28;20176;-86
2021/01/10 08:00:36;;;;;;;41.67;20.10;;;;;;;;;;5015929;28;20690;-87
2021/01/10 08:03:09;;;;;;;51.50;21.03;;;;;;;;;;5033978;28;20177;-87
2021/01/10 08:05:41;;;;;;;45.00;21.00;;;;;;;;;;5033922;28;20192;-86
2021/01/10 08:08:20;;;;;;;39.13;21.50;;;;;;;;;;5015901;28;20191;-86
2021/01/10 08:10:49;;;;;;;39.30;19.43;;;;;;;;;;5033740;28;20196;-87
2021/01/10 08:13:39;;;;;;;39.77;19.50;;;;;;;;;;5033739;28;20260;-86
2021/01/10 08:16:16;;;;;;;40.57;18.83;;;;;;;;;;5033864;28;20204;-87
2021/01/10 08:18:50;;;;;;;43.23;20.77;;;;;;;;;;5033971;28;20552;-87
2021/01/10 08:21:21;;;;;;;43.10;21.03;;;;;;;;;;5015744;28;20230;-87
2021/01/10 08:23:59;;;;;;;40.47;19.03;;;;;;;;;;5015660;28;20710;-86
2021/01/10 08:26:26;;;;;;;39.53;20.07;;;;;;;;;;5033667;28;20180;-86
2021/01/10 08:29:01;;;;;;;38.83;19.27;;;;;;;;;;5033514;28;20177;-87
2021/01/10 08:31:31;;;;;;;37.07;20.83;;;;;;;;;;5015696;28;20290;-87
2021/01/10 08:34:19;;;;;;;38.00;19.40;;;;;;;;;;5033850;28;20708;-86
2021/01/10 08:36:51;;;;;;;44.30;19.50;;;;;;;;;;5034151;28;20196;-86
2021/01/10 08:39:20;;;;;;;37.57;18.87;;;;;;;;;;5036476;28;20637;-85
2021/01/10 08:41:50;;;;;;;38.87;19.23;;;;;;;;;;5037014;28;20203;-85
2021/01/10 08:44:25;;;;;;;28.97;14.47;;;;;;;;;;5034356;28;20164;-87
2021/01/10 08:46:55;;;;;;;34.93;17.73;;;;;;;;;;5034279;28;20174;-86
2021/01/10 08:49:28;;;;;;;33.77;19.37;;;;;;;;;;5015827;28;20184;-86
2021/01/10 08:52:06;;;;;;;21.53;11.17;;;;;;;;;;5033939;28;20213;-86
2021/01/10 08:54:33;;;;;;;32.33;14.90;;;;;;;;;;5034358;28;20195;-87
2021/01/10 08:57:01;;;;;;;20.40;11.60;;;;;;;;;;5034056;28;20184;-86
2021/01/10 08:59:39;;;;;;;29.50;15.53;;;;;;;;;;5033625;28;20180;-86
2021/01/10 09:02:11;;;;;;;37.43;18.33;;;;;;;;;;5018575;28;20216;-86
2021/01/10 09:04:45;;;;;;;29.60;17.37;;;;;;;;;;5019960;28;20184;-86
2021/01/10 09:07:12;;;;;;;35.57;16.57;;;;;;;;;;5038087;28;20197;-86
2021/01/10 09:09:41;;;;;;;35.23;17.13;;;;;;;;;;5022572;28;20206;-87
2021/01/10 09:12:10;;;;;;;36.93;18.83;;;;;;;;;;5020613;28;20626;-86
2021/01/10 09:14:46;;;;;;;34.50;18.40;;;;;;;;;;5020936;28;20206;-87
2021/01/10 09:17:13;;;;;;;37.63;16.83;;;;;;;;;;5038667;28;20168;-87
2021/01/10 09:19:47;;;;;;;34.27;19.47;;;;;;;;;;5020839;28;20240;-87
2021/01/10 09:22:19;;;;;;;32.57;18.50;;;;;;;;;;5021796;28;20688;-86
2021/01/10 09:24:45;;;;;;;31.97;17.47;;;;;;;;;;5020540;28;20180;-87
2021/01/10 09:27:18;;;;;;;35.77;17.47;;;;;;;;;;5022255;28;20603;-86
2021/01/10 09:29:50;;;;;;;21.20;10.97;;;;;;;;;;5024012;28;20171;-86
2021/01/10 09:32:26;;;;;;;32.33;16.40;;;;;;;;;;5025091;28;20227;-86
2021/01/10 09:34:58;;;;;;;34.17;18.07;;;;;;;;;;5042110;28;20748;-86
2021/01/10 09:37:31;;;;;;;17.83;10.47;;;;;;;;;;5024520;28;20172;-86
2021/01/10 09:40:19;;;;;;;34.33;14.60;;;;;;;;;;5041879;28;20219;-86
2021/01/10 09:42:51;;;;;;;30.67;18.27;;;;;;;;;;5041092;28;20169;-86
2021/01/10 09:45:35;;;;;;;16.13;9.37;;;;;;;;;;5041444;28;20217;-86
2021/01/10 09:48:17;;;;;;;32.47;17.87;;;;;;;;;;5042761;28;20186;-84
2021/01/10 09:50:48;;;;;;;26.47;13.67;;;;;;;;;;5044662;28;20585;-84
2021/01/10 09:53:27;;;;;;;34.57;17.03;;;;;;;;;;5042865;28;20172;-84
2021/01/10 09:55:55;;;;;;;26.93;16.57;;;;;;;;;;5027032;28;20235;-84
2021/01/10 09:58:22;;;;;;;31.23;16.90;;;;;;;;;;5046718;28;20204;-84
2021/01/10 10:01:04;;;;;;;33.53;17.37;;;;;;;;;;5024618;28;20240;-86
2021/01/10 10:03:40;;;;;;;26.43;11.63;;;;;;;;;;5024795;28;20241;-86
2021/01/10 10:06:06;;;;;;;24.90;14.97;;;;;;;;;;5024471;28;20177;-86
2021/01/10 10:08:55;;;;;;;33.23;16.33;;;;;;;;;;5024355;28;20251;-86
2021/01/10 10:11:28;;;;;;;20.17;10.27;;;;;;;;;;5023510;28;20582;-86
2021/01/10 10:14:00;;;;;;;29.47;14.63;;;;;;;;;;5022603;28;20211;-86
2021/01/10 10:16:32;;;;;;;23.60;12.37;;;;;;;;;;5041038;28;20276;-86
2021/01/10 10:19:04;;;;;;;26.77;14.43;;;;;;;;;;5042880;28;20161;-86
2021/01/10 10:21:39;;;;;;;35.10;18.20;;;;;;;;;;5027693;28;20672;-86
2021/01/10 10:24:11;;;;;;;22.60;10.40;;;;;;;;;;5040530;28;20161;-87
2021/01/10 10:26:47;;;;;;;21.77;12.37;;;;;;;;;;5018491;28;20205;-86
2021/01/10 10:29:16;;;;;;;27.50;14.30;;;;;;;;;;5043752;28;20176;-85
2021/01/10 10:31:44;;;;;;;24.53;13.40;;;;;;;;;;5027622;28;20668;-87
2021/01/10 10:34:20;;;;;;;21.93;14.03;;;;;;;;;;5029858;28;20219;-86
2021/01/10 10:36:51;;;;;;;23.60;13.17;;;;;;;;;;5026613;28;20288;-86
2021/01/10 10:39:21;;;;;;;17.30;10.73;;;;;;;;;;5027516;28;20653;-87
2021/01/10 10:41:51;;;;;;;27.00;13.30;;;;;;;;;;5027038;28;20216;-86
2021/01/10 10:44:21;;;;;;;23.60;13.97;;;;;;;;;;5027006;28;20178;-86
2021/01/10 10:46:55;;;;;;;20.30;12.83;;;;;;;;;;5026528;28;20260;-86
2021/01/10 10:49:25;;;;;;;26.53;13.93;;;;;;;;;;5044793;28;20327;-86
2021/01/10 10:51:58;;;;;;;34.30;14.97;;;;;;;;;;5026950;28;20216;-86
2021/01/10 10:54:29;;;;;;;26.60;13.80;;;;;;;;;;5027224;28;20166;-87
2021/01/10 10:57:01;;;;;;;24.00;13.63;;;;;;;;;;5024732;28;20292;-87
2021/01/10 10:59:31;;;;;;;40.47;18.30;;;;;;;;;;5025687;28;20186;-87
2021/01/10 11:02:03;;;;;;;26.03;13.80;;;;;;;;;;5023670;28;20752;-85
2021/01/10 11:04:33;;;;;;;20.87;10.70;;;;;;;;;;5023439;28;20187;-86
2021/01/10 11:07:06;;;;;;;31.47;14.53;;;;;;;;;;5025251;28;20186;-86
2021/01/10 11:09:38;;;;;;;28.90;15.30;;;;;;;;;;5043064;28;20188;-86
2021/01/10 11:12:15;;;;;;;18.60;9.63;;;;;;;;;;5042345;28;20577;-86
2021/01/10 11:14:49;;;;;;;26.17;12.67;;;;;;;;;;5024244;28;20190;-86
2021/01/10 11:17:21;;;;;;;31.00;13.40;;;;;;;;;;5026165;28;20653;-85
2021/01/10 11:19:51;;;;;;;27.90;11.90;;;;;;;;;;5022588;28;20651;-86
2021/01/10 11:22:25;;;;;;;19.23;11.33;;;;;;;;;;5021966;28;20186;-85
2021/01/10 11:24:56;;;;;;;31.90;17.20;;;;;;;;;;5037698;28;20167;-85
2021/01/10 11:27:26;;;;;;;20.73;11.33;;;;;;;;;;5036351;28;20254;-85
2021/01/10 11:29:58;;;;;;;17.67;11.23;;;;;;;;;;5016976;28;20174;-86
2021/01/10 11:32:27;;;;;;;24.77;13.43;;;;;;;;;;5017397;28;20177;-86
2021/01/10 11:35:01;;;;;;;28.70;15.87;;;;;;;;;;5016910;28;20183;-86
2021/01/10 11:37:38;;;;;;;31.13;14.70;;;;;;;;;;5017282;28;20636;-86
2021/01/10 11:40:15;;;;;;;23.00;12.83;;;;;;;;;;5017114;28;20170;-86
2021/01/10 11:42:51;;;;;;;27.40;16.27;;;;;;;;;;5017021;28;20175;-87
2021/01/10 11:45:21;;;;;;;35.37;17.87;;;;;;;;;;5034833;28;20168;-86
2021/01/10 11:47:51;;;;;;;31.83;14.17;;;;;;;;;;5016789;28;20178;-87
2021/01/10 11:50:20;;;;;;;27.43;15.10;;;;;;;;;;5016270;28;20202;-86
2021/01/10 11:52:51;;;;;;;22.17;11.53;;;;;;;;;;5034384;28;20180;-86
2021/01/10 11:55:24;;;;;;;20.10;10.97;;;;;;;;;;5034536;28;20197;-86
2021/01/10 11:57:54;;;;;;;32.90;14.50;;;;;;;;;;5016327;28;20165;-86
2021/01/10 12:02:58;;;;;;;29.67;14.50;;;;;;;;;;5064649;28;20213;-87
2021/01/10 12:05:31;;;;;;;27.73;13.37;;;;;;;;;;5046384;28;20177;-86
2021/01/10 12:08:03;;;;;;;19.23;12.00;;;;;;;;;;5061700;28;20254;-86
2021/01/10 12:10:38;;;;;;;23.13;12.93;;;;;;;;;;5039068;28;20264;-87
2021/01/10 12:13:11;;;;;;;17.93;10.97;;;;;;;;;;5057575;28;20662;-87
2021/01/10 12:15:45;;;;;;;34.27;17.70;;;;;;;;;;5055568;28;20581;-86
2021/01/10 12:18:19;;;;;;;20.03;11.53;;;;;;;;;;5055705;28;20168;-86
2021/01/10 12:20:51;;;;;;;31.57;18.17;;;;;;;;;;5055104;28;20198;-86
2021/01/10 12:23:18;;;;;;;24.90;17.53;;;;;;;;;;5053471;28;20176;-87
2021/01/10 12:25:50;;;;;;;30.50;18.07;;;;;;;;;;5053629;28;20212;-87
2021/01/10 12:28:21;;;;;;;35.80;19.37;;;;;;;;;;5052986;28;20175;-87
2021/01/10 12:30:51;;;;;;;20.43;15.63;;;;;;;;;;5053240;28;20205;-87
2021/01/10 12:33:21;;;;;;;27.03;15.30;;;;;;;;;;5053751;28;20173;-87
2021/01/10 12:35:51;;;;;;;22.40;16.03;;;;;;;;;;5053248;28;20200;-86
2021/01/10 12:38:23;;;;;;;31.40;16.17;;;;;;;;;;5056770;28;20177;-86
2021/01/10 12:40:53;;;;;;;33.53;18.23;;;;;;;;;;5056512;28;20247;-87
2021/01/10 12:43:24;;;;;;;37.87;21.47;;;;;;;;;;5059687;28;20175;-87
2021/01/10 12:45:52;;;;;;;40.93;17.50;;;;;;;;;;5059637;28;20176;-87
2021/01/10 12:48:21;;;;;;;32.17;16.30;;;;;;;;;;5061339;28;20290;-87
2021/01/10 12:50:54;;;;;;;29.37;17.97;;;;;;;;;;5058898;28;20207;-87
2021/01/10 12:53:27;;;;;;;35.03;20.37;;;;;;;;;;5058518;28;20182;-87
2021/01/10 12:56:01;;;;;;;37.53;22.47;;;;;;;;;;5060592;28;20191;-87
2021/01/10 12:58:34;;;;;;;23.90;15.63;;;;;;;;;;5065308;28;20262;-87
2021/01/10 13:01:07;;;;;;;25.60;16.10;;;;;;;;;;5062118;28;20210;-87
2021/01/10 13:03:41;;;;;;;19.70;14.57;;;;;;;;;;5063074;28;20172;-87
2021/01/10 13:06:14;;;;;;;26.47;15.50;;;;;;;;;;5062131;28;20169;-87
2021/01/10 13:08:43;;;;;;;35.90;21.73;;;;;;;;;;5061046;28;20179;-87
2021/01/10 13:11:21;;;;;;;19.03;14.87;;;;;;;;;;5059512;28;20288;-87
2021/01/10 13:13:51;;;;;;;31.80;19.30;;;;;;;;;;5063026;28;20166;-87
2021/01/10 13:16:23;;;;;;;28.33;15.37;;;;;;;;;;5065422;28;20677;-86
2021/01/10 13:18:55;;;;;;;24.27;16.10;;;;;;;;;;5067850;28;20186;-87
2021/01/10 13:21:25;;;;;;;25.87;19.17;;;;;;;;;;5066101;28;20666;-87
2021/01/10 13:23:55;;;;;;;18.07;13.57;;;;;;;;;;5064721;28;20172;-87
2021/01/10 13:26:24;;;;;;;27.80;16.73;;;;;;;;;;5064518;28;20170;-87
2021/01/10 13:28:52;;;;;;;25.57;16.20;;;;;;;;;;5065070;28;20219;-87
2021/01/10 13:31:20;;;;;;;25.53;19.67;;;;;;;;;;5065008;28;20237;-87
2021/01/10 13:33:49;;;;;;;19.83;14.53;;;;;;;;;;5065346;28;20182;-87
2021/01/10 13:36:22;;;;;;;18.70;13.07;;;;;;;;;;5061598;28;20223;-87
2021/01/10 13:38:50;;;;;;;17.43;13.17;;;;;;;;;;5063477;28;20201;-87
2021/01/10 13:41:22;;;;;;;22.53;15.13;;;;;;;;;;5066175;28;20189;-87
2021/01/10 13:43:49;;;;;;;20.07;15.77;;;;;;;;;;5067120;28;20174;-87
2021/01/10 13:46:16;;;;;;;16.47;12.47;;;;;;;;;;5066288;28;20575;-88
2021/01/10 13:48:43;;;;;;;20.23;14.57;;;;;;;;;;5064813;28;20180;-87
2021/01/10 13:51:19;;;;;;;24.50;15.03;;;;;;;;;;5065307;28;20678;-88
2021/01/10 13:53:49;;;;;;;19.57;13.93;;;;;;;;;;5065252;28;20189;-87
2021/01/10 13:56:18;;;;;;;19.53;12.67;;;;;;;;;;5064657;28;20202;-87
2021/01/10 13:58:47;;;;;;;15.67;11.43;;;;;;;;;;5068142;28;20184;-87
2021/01/10 14:01:19;;;;;;;13.60;8.93;;;;;;;;;;5067442;28;20203;-87
2021/01/10 14:03:47;;;;;;;13.00;10.63;;;;;;;;;;5066094;28;20185;-87
2021/01/10 14:06:27;;;;;;;17.87;10.67;;;;;;;;;;5067922;28;20200;-87
2021/01/10 14:09:00;;;;;;;20.30;12.77;;;;;;;;;;5068082;28;20167;-87
2021/01/10 14:11:29;;;;;;;22.90;14.20;;;;;;;;;;5067333;28;20233;-87
2021/01/10 14:13:56;;;;;;;16.83;11.90;;;;;;;;;;5064994;28;20189;-87
2021/01/10 14:16:25;;;;;;;14.70;11.40;;;;;;;;;;5064016;28;20201;-87
2021/01/10 14:18:55;;;;;;;14.63;10.83;;;;;;;;;;5064151;28;20205;-87
2021/01/10 14:21:28;;;;;;;19.43;13.03;;;;;;;;;;5065932;28;20230;-87
2021/01/10 14:23:57;;;;;;;11.47;9.37;;;;;;;;;;5066287;28;20210;-88
2021/01/10 14:26:27;;;;;;;17.67;12.93;;;;;;;;;;5065648;28;20183;-88
2021/01/10 14:28:57;;;;;;;17.83;13.20;;;;;;;;;;5067505;28;20174;-87
2021/01/10 14:31:29;;;;;;;13.63;10.90;;;;;;;;;;5065427;28;20197;-87
2021/01/10 14:33:56;;;;;;;10.33;7.37;;;;;;;;;;5064160;28;20209;-87
2021/01/10 14:36:25;;;;;;;12.53;10.90;;;;;;;;;;5064131;28;20202;-87
2021/01/10 14:38:54;;;;;;;17.10;10.80;;;;;;;;;;5061529;28;20175;-88
2021/01/10 14:41:25;;;;;;;13.10;10.47;;;;;;;;;;5055735;28;20199;-87
2021/01/10 14:43:55;;;;;;;14.17;9.73;;;;;;;;;;5060153;28;20598;-87
2021/01/10 14:46:25;;;;;;;16.97;12.03;;;;;;;;;;5060434;28;20553;-87
2021/01/10 14:48:58;;;;;;;16.27;11.30;;;;;;;;;;5062094;28;20267;-87